createdAt,value
2017-10-03T00:02:02.199Z,11.70
2017-10-03T00:04:29.725Z,11.33
2017-10-03T00:06:57.254Z,9.53
2017-10-03T00:09:24.772Z,9.87
2017-10-03T00:11:52.295Z,11.90
2017-10-03T00:14:19.794Z,8.70
2017-10-03T00:16:47.322Z,9.43
2017-10-03T00:19:15.613Z,9.40
2017-10-03T00:21:43.901Z,10.07
2017-10-03T00:24:11.473Z,10.90
2017-10-03T00:26:38.974Z,10.13
2017-10-03T00:29:06.509Z,10.63
2017-10-03T00:31:34.015Z,11.60
2017-10-03T00:34:02.317Z,11.10
2017-10-03T00:36:29.823Z,10.00
2017-10-03T00:38:57.338Z,9.50
2017-10-03T00:41:24.868Z,10.60
2017-10-03T00:43:53.135Z,10.47
2017-10-03T00:46:21.442Z,8.70
2017-10-03T00:48:49.013Z,8.60
2017-10-03T00:51:16.520Z,9.03
2017-10-03T00:53:44.802Z,8.60
2017-10-03T00:56:13.068Z,10.90
2017-10-03T00:58:40.598Z,9.40
2017-10-03T01:01:08.115Z,8.90
2017-10-03T01:03:35.633Z,9.63
2017-10-03T01:06:03.170Z,9.47
2017-10-03T01:08:30.666Z,9.17
2017-10-03T01:10:58.197Z,8.63
2017-10-03T01:13:25.733Z,8.93
2017-10-03T01:15:53.259Z,11.70
2017-10-03T01:18:21.536Z,7.77
2017-10-03T01:20:49.839Z,9.33
2017-10-03T01:23:17.350Z,9.17
2017-10-03T01:25:44.960Z,8.60
2017-10-03T01:28:12.474Z,7.93
2017-10-03T01:30:40.746Z,9.37
2017-10-03T01:33:09.067Z,9.23
2017-10-03T01:35:36.577Z,8.70
2017-10-03T01:38:05.953Z,9.67
2017-10-03T01:40:33.469Z,9.23
2017-10-03T01:43:00.962Z,9.43
2017-10-03T01:45:28.494Z,8.97
2017-10-03T01:47:56.003Z,10.93
2017-10-03T01:50:24.315Z,9.40
2017-10-03T01:52:51.825Z,9.20
2017-10-03T01:55:19.428Z,9.40
2017-10-03T01:57:47.836Z,9.87
2017-10-03T02:00:15.352Z,10.57
2017-10-03T02:02:43.652Z,12.10
2017-10-03T02:05:11.185Z,10.60
2017-10-03T02:07:38.711Z,12.40
2017-10-03T02:10:06.997Z,10.30
2017-10-03T02:12:35.293Z,10.17
2017-10-03T02:15:02.786Z,7.83
2017-10-03T02:17:30.319Z,6.03
2017-10-03T02:19:57.969Z,5.57
2017-10-03T02:22:25.492Z,3.70
2017-10-03T02:24:53.024Z,3.00
2017-10-03T02:27:20.527Z,3.80
2017-10-03T02:29:48.841Z,4.23
2017-10-03T02:32:16.353Z,3.70
2017-10-03T02:34:44.634Z,3.87
2017-10-03T02:37:12.928Z,4.30
2017-10-03T02:39:40.440Z,4.93
2017-10-03T02:42:08.062Z,3.60
2017-10-03T02:44:35.564Z,4.40
2017-10-03T02:47:03.841Z,3.93
2017-10-03T02:49:31.454Z,4.70
2017-10-03T02:51:58.969Z,5.37
2017-10-03T02:54:27.250Z,4.57
2017-10-03T02:56:55.554Z,4.17
2017-10-03T02:59:23.051Z,4.63
2017-10-03T03:01:50.588Z,4.23
2017-10-03T03:04:18.087Z,5.60
2017-10-03T03:06:45.585Z,5.67
2017-10-03T03:09:13.129Z,6.57
2017-10-03T03:11:41.434Z,6.77
2017-10-03T03:14:08.970Z,5.60
2017-10-03T03:16:36.587Z,6.27
2017-10-03T03:19:04.212Z,6.27
2017-10-03T03:21:31.726Z,6.13
2017-10-03T03:23:59.231Z,8.50
2017-10-03T03:26:26.769Z,6.10
2017-10-03T03:28:54.289Z,6.70
2017-10-03T03:31:21.905Z,7.53
2017-10-03T03:33:49.402Z,7.97
2017-10-03T03:36:16.920Z,7.50
2017-10-03T03:38:44.453Z,8.70
2017-10-03T03:41:12.722Z,10.43
2017-10-03T03:43:41.003Z,10.33
2017-10-03T03:46:09.315Z,13.27
2017-10-03T03:48:36.814Z,11.77
2017-10-03T03:51:04.352Z,11.13
2017-10-03T03:53:31.847Z,9.37
2017-10-03T03:56:00.155Z,11.63
2017-10-03T03:58:27.659Z,10.93
2017-10-03T04:00:55.187Z,12.23
2017-10-03T04:03:22.705Z,11.13
2017-10-03T04:05:51.016Z,10.67
2017-10-03T04:08:18.522Z,11.03
2017-10-03T04:10:46.027Z,12.27
2017-10-03T04:13:13.547Z,9.80
2017-10-03T04:15:41.826Z,10.63
2017-10-03T04:18:10.135Z,10.30
2017-10-03T04:20:37.695Z,10.03
2017-10-03T04:23:05.241Z,11.90
2017-10-03T04:25:32.761Z,11.30
2017-10-03T04:28:00.313Z,10.40
2017-10-03T04:30:27.815Z,10.63
2017-10-03T04:32:55.310Z,11.67
2017-10-03T04:35:22.833Z,12.97
2017-10-03T04:37:50.358Z,12.63
2017-10-03T04:40:17.876Z,11.47
2017-10-03T04:42:45.421Z,12.97
2017-10-03T04:45:12.937Z,15.67
2017-10-03T04:47:41.225Z,15.07
2017-10-03T04:50:09.534Z,14.20
2017-10-03T04:52:37.057Z,15.37
2017-10-03T04:55:05.361Z,14.73
2017-10-03T04:57:32.858Z,16.80
2017-10-03T05:00:00.398Z,17.97
2017-10-03T05:02:27.920Z,18.80
2017-10-03T05:04:56.196Z,19.27
2017-10-03T05:07:23.729Z,17.40
2017-10-03T05:09:51.226Z,18.30
2017-10-03T05:12:18.772Z,20.03
2017-10-03T05:14:47.173Z,21.70
2017-10-03T05:17:14.733Z,21.10
2017-10-03T05:19:42.255Z,20.80
2017-10-03T05:22:10.541Z,20.90
2017-10-03T05:24:38.063Z,22.20
2017-10-03T05:27:05.687Z,21.67
2017-10-03T05:29:33.237Z,21.43
2017-10-03T05:32:00.754Z,24.80
2017-10-03T05:34:29.034Z,24.03
2017-10-03T05:36:56.555Z,23.13
2017-10-03T05:39:24.060Z,25.87
2017-10-03T05:41:52.370Z,24.50
2017-10-03T05:44:19.888Z,23.70
2017-10-03T05:46:48.208Z,25.03
2017-10-03T05:49:15.715Z,23.30
2017-10-03T05:51:43.326Z,25.10
2017-10-03T05:54:10.843Z,23.53
2017-10-03T05:56:38.357Z,23.97
2017-10-03T05:59:06.664Z,25.43
2017-10-03T06:01:34.167Z,23.97
2017-10-03T06:04:01.671Z,25.13
2017-10-03T06:06:29.202Z,23.50
2017-10-03T06:08:56.698Z,22.57
2017-10-03T06:11:24.203Z,22.53
2017-10-03T06:13:51.739Z,22.57
2017-10-03T06:16:19.243Z,23.00
2017-10-03T06:18:47.546Z,23.13
2017-10-03T06:21:15.059Z,22.70
2017-10-03T06:23:42.579Z,22.00
2017-10-03T06:26:10.118Z,21.47
2017-10-03T06:28:37.644Z,20.13
2017-10-03T06:31:05.167Z,20.97
2017-10-03T06:33:32.671Z,20.57
2017-10-03T06:36:00.194Z,20.40
2017-10-03T06:38:28.463Z,20.23
2017-10-03T06:40:56.760Z,20.93
2017-10-03T06:43:24.343Z,19.30
2017-10-03T06:45:51.866Z,18.63
2017-10-03T06:48:20.163Z,18.70
2017-10-03T06:50:47.894Z,19.50
2017-10-03T06:53:15.507Z,17.70
2017-10-03T06:55:43.037Z,17.53
2017-10-03T06:58:10.582Z,17.80
2017-10-03T07:00:38.110Z,20.03
2017-10-03T07:03:05.637Z,16.00
2017-10-03T07:05:33.157Z,16.70
2017-10-03T07:08:00.705Z,15.90
2017-10-03T07:10:28.216Z,16.20
2017-10-03T07:12:55.786Z,15.93
2017-10-03T07:15:24.095Z,15.23
2017-10-03T07:17:51.665Z,15.37
2017-10-03T07:20:19.191Z,15.47
2017-10-03T07:22:46.714Z,15.47
2017-10-03T07:25:14.210Z,14.10
2017-10-03T07:27:41.757Z,14.30
2017-10-03T07:30:10.045Z,13.47
2017-10-03T07:32:37.573Z,14.53
2017-10-03T07:35:05.109Z,13.37
2017-10-03T07:37:32.621Z,11.50
2017-10-03T07:40:00.143Z,12.20
2017-10-03T07:42:28.415Z,13.87
2017-10-03T07:44:55.933Z,11.03
2017-10-03T07:47:24.229Z,11.30
2017-10-03T07:49:51.722Z,13.70
2017-10-03T07:52:20.760Z,12.70
2017-10-03T07:54:48.262Z,11.77
2017-10-03T07:57:15.763Z,11.97
2017-10-03T07:59:43.337Z,10.40
2017-10-03T08:02:10.839Z,10.33
2017-10-03T08:04:38.360Z,9.37
2017-10-03T08:07:05.901Z,8.40
2017-10-03T08:09:33.395Z,9.00
2017-10-03T08:12:00.887Z,9.00
2017-10-03T08:14:29.299Z,7.93
2017-10-03T08:16:56.859Z,8.63
2017-10-03T08:19:24.356Z,7.97
2017-10-03T08:21:51.906Z,9.37
2017-10-03T08:24:19.408Z,10.27
2017-10-03T08:26:47.688Z,10.27
2017-10-03T08:29:15.994Z,12.90
2017-10-03T08:31:43.492Z,12.87
2017-10-03T08:34:12.516Z,11.87
2017-10-03T08:36:40.097Z,11.40
2017-10-03T08:39:08.363Z,13.00
2017-10-03T08:41:35.863Z,13.00
2017-10-03T08:44:06.445Z,11.70
2017-10-03T08:46:34.081Z,12.83
2017-10-03T08:49:01.602Z,11.90
2017-10-03T08:51:29.882Z,13.07
2017-10-03T08:53:57.391Z,12.47
2017-10-03T08:56:24.926Z,14.10
2017-10-03T08:58:52.455Z,12.70
2017-10-03T09:01:20.733Z,14.77
2017-10-03T09:03:49.027Z,13.87
2017-10-03T09:06:16.527Z,14.03
2017-10-03T09:08:44.058Z,10.13
2017-10-03T09:11:11.605Z,11.50
2017-10-03T09:13:39.116Z,11.30
2017-10-03T09:16:07.417Z,12.37
2017-10-03T09:18:34.915Z,10.97
2017-10-03T09:21:02.443Z,11.37
2017-10-03T09:23:29.973Z,11.20
2017-10-03T09:25:57.489Z,10.17
2017-10-03T09:28:25.002Z,11.37
2017-10-03T09:30:52.513Z,11.97
2017-10-03T09:33:20.818Z,11.30
2017-10-03T09:35:48.352Z,11.47
2017-10-03T09:38:15.869Z,10.40
2017-10-03T09:40:44.272Z,10.47
2017-10-03T09:43:11.790Z,11.40
2017-10-03T09:45:40.093Z,9.50
2017-10-03T09:48:07.664Z,7.70
2017-10-03T09:50:35.173Z,9.03
2017-10-03T09:53:02.783Z,7.67
2017-10-03T09:55:30.278Z,9.50
2017-10-03T09:57:57.813Z,8.60
2017-10-03T10:00:25.303Z,7.50
2017-10-03T10:02:52.823Z,8.23
2017-10-03T10:05:20.583Z,7.10
2017-10-03T10:07:48.083Z,7.93
2017-10-03T10:10:15.702Z,7.70
2017-10-03T10:12:43.210Z,7.23
2017-10-03T10:15:10.716Z,7.73
2017-10-03T10:17:38.242Z,7.53
2017-10-03T10:20:05.740Z,6.87
2017-10-03T10:22:33.457Z,5.90
2017-10-03T10:25:00.978Z,5.93
2017-10-03T10:27:29.445Z,5.47
2017-10-03T10:29:57.462Z,5.37
2017-10-03T10:32:25.023Z,6.60
2017-10-03T10:34:52.566Z,5.63
2017-10-03T10:37:20.095Z,5.37
2017-10-03T10:39:47.608Z,4.43
2017-10-03T10:42:15.145Z,5.80
2017-10-03T10:44:42.652Z,4.40
2017-10-03T10:47:10.910Z,4.87
2017-10-03T10:49:38.427Z,3.67
2017-10-03T10:52:05.971Z,4.07
2017-10-03T10:54:33.503Z,6.07
2017-10-03T10:57:01.821Z,5.80
2017-10-03T10:59:29.374Z,4.83
2017-10-03T11:01:56.905Z,5.03
2017-10-03T11:04:25.166Z,5.80
2017-10-03T11:06:52.701Z,5.73
2017-10-03T11:09:20.218Z,5.40
2017-10-03T11:11:47.730Z,6.03
2017-10-03T11:14:15.269Z,6.00
2017-10-03T11:16:42.805Z,6.43
2017-10-03T11:19:10.331Z,6.30
2017-10-03T11:21:38.609Z,5.00
2017-10-03T11:27:11.192Z,4.90
2017-10-03T11:29:39.496Z,4.00
2017-10-03T11:32:06.986Z,4.10
2017-10-03T11:34:34.526Z,3.03
2017-10-03T11:37:02.053Z,3.53
2017-10-03T11:39:30.342Z,3.63
2017-10-03T11:41:57.883Z,3.80
2017-10-03T11:44:26.139Z,4.23
2017-10-03T11:46:53.653Z,3.40
2017-10-03T11:49:21.186Z,4.20
2017-10-03T11:51:49.458Z,3.50
2017-10-03T11:54:17.764Z,4.50
2017-10-03T11:56:45.263Z,3.90
2017-10-03T11:59:12.778Z,3.63
2017-10-03T12:01:40.304Z,4.13
2017-10-03T12:04:08.703Z,3.23
2017-10-03T12:06:36.234Z,2.80
2017-10-03T12:09:04.705Z,3.77
2017-10-03T12:11:32.984Z,3.10
2017-10-03T12:14:00.518Z,3.20
2017-10-03T12:16:28.029Z,3.00
2017-10-03T12:18:55.606Z,3.53
2017-10-03T12:21:23.116Z,3.80
2017-10-03T12:23:50.623Z,2.43
2017-10-03T12:26:18.157Z,3.53
2017-10-03T12:28:46.433Z,2.23
2017-10-03T12:31:14.738Z,2.33
2017-10-03T12:33:42.248Z,2.77
2017-10-03T12:36:09.752Z,2.80
2017-10-03T12:38:37.269Z,2.70
2017-10-03T12:41:05.545Z,2.10
2017-10-03T12:43:33.839Z,2.70
2017-10-03T12:46:02.117Z,2.97
2017-10-03T12:48:29.629Z,3.73
2017-10-03T12:50:57.357Z,3.47
2017-10-03T12:53:24.913Z,2.33
2017-10-03T12:55:52.431Z,3.47
2017-10-03T12:58:20.342Z,3.37
2017-10-03T13:00:47.889Z,2.67
2017-10-03T13:03:15.398Z,2.70
2017-10-03T13:05:42.890Z,2.23
2017-10-03T13:08:11.192Z,3.60
2017-10-03T13:10:38.706Z,2.50
2017-10-03T13:13:06.249Z,2.50
2017-10-03T13:15:33.742Z,3.10
2017-10-03T13:18:02.044Z,3.17
2017-10-03T13:20:29.548Z,2.50
2017-10-03T13:22:57.810Z,3.77
2017-10-03T13:25:25.342Z,3.47
2017-10-03T13:27:53.609Z,3.63
2017-10-03T13:30:21.123Z,2.40
2017-10-03T13:32:48.633Z,2.53
2017-10-03T13:35:16.156Z,2.43
2017-10-03T13:37:44.414Z,2.57
2017-10-03T13:40:12.763Z,2.20
2017-10-03T13:42:40.264Z,3.40
2017-10-03T13:45:07.767Z,2.63
2017-10-03T13:47:36.061Z,3.43
2017-10-03T13:50:03.584Z,3.40
2017-10-03T13:52:31.109Z,3.00
2017-10-03T13:54:59.406Z,3.83
2017-10-03T13:57:26.987Z,2.70
2017-10-03T13:59:54.517Z,3.33
2017-10-03T14:02:22.784Z,2.53
2017-10-03T14:04:51.079Z,2.93
2017-10-03T14:07:18.574Z,2.43
2017-10-03T14:09:46.853Z,4.10
2017-10-03T14:12:15.127Z,2.40
2017-10-03T14:14:43.388Z,2.90
2017-10-03T14:17:10.918Z,2.60
2017-10-03T14:19:38.438Z,2.37
2017-10-03T14:22:05.945Z,1.83
2017-10-03T14:24:33.477Z,2.97
2017-10-03T14:27:00.997Z,3.27
2017-10-03T14:29:28.546Z,3.73
2017-10-03T14:31:56.047Z,3.03
2017-10-03T14:34:23.573Z,3.60
2017-10-03T14:36:51.086Z,3.10
2017-10-03T14:39:18.593Z,3.63
2017-10-03T14:41:46.127Z,3.30
2017-10-03T14:44:14.400Z,2.80
2017-10-03T14:46:41.909Z,2.77
2017-10-03T14:49:11.051Z,2.20
2017-10-03T14:51:38.564Z,2.80
2017-10-03T14:54:06.117Z,2.90
2017-10-03T14:56:33.726Z,2.33
2017-10-03T14:59:01.237Z,2.40
2017-10-03T15:01:28.755Z,4.40
2017-10-03T15:03:57.033Z,4.80
2017-10-03T15:06:25.450Z,4.40
2017-10-03T15:08:52.955Z,3.90
2017-10-03T15:11:20.456Z,4.30
2017-10-03T15:13:47.975Z,4.07
2017-10-03T15:16:15.553Z,2.90
2017-10-03T15:18:43.069Z,3.47
2017-10-03T15:21:11.345Z,3.67
2017-10-03T15:23:38.916Z,3.20
2017-10-03T15:26:06.432Z,1.90
2017-10-03T15:28:33.927Z,3.63
2017-10-03T15:31:01.452Z,2.90
2017-10-03T15:33:28.972Z,3.20
2017-10-03T15:35:56.548Z,2.93
2017-10-03T15:38:24.077Z,3.63
2017-10-03T15:40:51.648Z,2.00
2017-10-03T15:43:19.934Z,2.17
2017-10-03T15:45:48.213Z,2.70
2017-10-03T15:48:16.495Z,2.67
2017-10-03T15:50:44.020Z,2.33
2017-10-03T15:53:11.534Z,2.10
2017-10-03T15:55:39.055Z,2.97
2017-10-03T15:58:07.321Z,3.50
2017-10-03T16:00:35.605Z,3.60
2017-10-03T16:03:03.886Z,3.17
2017-10-03T16:05:32.142Z,3.63
2017-10-03T16:08:01.192Z,3.57
2017-10-03T16:10:28.709Z,4.23
2017-10-03T16:12:56.987Z,5.23
2017-10-03T16:15:24.511Z,5.77
2017-10-03T16:17:52.014Z,4.73
2017-10-03T16:20:20.321Z,4.67
2017-10-03T16:22:47.822Z,3.90
2017-10-03T16:25:16.082Z,4.30
2017-10-03T16:27:44.375Z,37.17
2017-10-03T16:30:11.878Z,43.27
2017-10-03T16:32:39.407Z,39.30
2017-10-03T16:35:06.906Z,10.37
2017-10-03T16:37:34.402Z,5.37
2017-10-03T16:40:02.694Z,6.10
2017-10-03T16:42:30.196Z,4.80
2017-10-03T16:44:57.731Z,5.70
2017-10-03T16:47:25.282Z,5.10
2017-10-03T16:49:52.784Z,4.07
2017-10-03T16:52:20.403Z,3.57
2017-10-03T16:54:47.932Z,4.67
2017-10-03T16:57:16.209Z,3.93
2017-10-03T16:59:43.725Z,6.50
2017-10-03T17:02:11.266Z,5.50
2017-10-03T17:04:38.777Z,5.70
2017-10-03T17:07:07.077Z,4.87
2017-10-03T17:09:34.580Z,4.60
2017-10-03T17:12:02.119Z,4.60
2017-10-03T17:14:29.632Z,6.70
2017-10-03T17:16:57.914Z,5.83
2017-10-03T17:19:25.443Z,5.20
2017-10-03T17:21:52.945Z,5.93
2017-10-03T17:24:20.480Z,6.00
2017-10-03T17:26:47.993Z,6.53
2017-10-03T17:29:16.612Z,8.13
2017-10-03T17:31:44.183Z,7.50
2017-10-03T17:34:11.722Z,7.70
2017-10-03T17:36:39.246Z,7.50
2017-10-03T17:39:07.544Z,6.13
2017-10-03T17:41:35.077Z,6.23
2017-10-03T17:44:02.610Z,6.47
2017-10-03T17:46:30.110Z,6.63
2017-10-03T17:48:57.661Z,6.37
2017-10-03T17:51:25.965Z,5.50
2017-10-03T17:53:54.285Z,6.20
2017-10-03T17:56:21.814Z,4.90
2017-10-03T17:58:49.366Z,4.60
2017-10-03T18:01:17.701Z,4.83
2017-10-03T18:03:45.218Z,5.60
2017-10-03T18:06:12.757Z,5.53
2017-10-03T18:08:41.052Z,5.20
2017-10-03T18:11:08.583Z,5.80
2017-10-03T18:13:36.898Z,4.77
2017-10-03T18:16:04.421Z,4.20
2017-10-03T18:18:32.208Z,5.37
2017-10-03T18:20:59.814Z,4.87
2017-10-03T18:23:27.353Z,4.83
2017-10-03T18:25:54.851Z,5.57
2017-10-03T18:28:22.374Z,6.67
2017-10-03T18:30:49.935Z,5.53
2017-10-03T18:33:17.478Z,6.73
2017-10-03T18:35:45.007Z,5.70
2017-10-03T18:38:13.294Z,5.47
2017-10-03T18:40:41.577Z,5.20
2017-10-03T18:43:10.615Z,4.43
2017-10-03T18:45:38.116Z,5.43
2017-10-03T18:48:05.634Z,6.17
2017-10-03T18:50:33.209Z,4.80
2017-10-03T18:53:00.733Z,5.00
2017-10-03T18:55:29.045Z,3.70
2017-10-03T18:57:56.561Z,5.13
2017-10-03T19:00:24.828Z,5.17
2017-10-03T19:02:53.869Z,5.50
2017-10-03T19:05:21.367Z,5.00
2017-10-03T19:07:48.900Z,5.00
2017-10-03T19:10:16.421Z,5.47
2017-10-03T19:12:44.709Z,5.47
2017-10-03T19:15:12.241Z,5.10
2017-10-03T19:17:40.498Z,4.80
2017-10-03T19:20:08.049Z,5.50
2017-10-03T19:22:35.570Z,5.00
2017-10-03T19:25:03.114Z,4.70
2017-10-03T19:27:30.630Z,4.67
2017-10-03T19:29:58.127Z,5.50
2017-10-03T19:32:25.665Z,4.67
2017-10-03T19:34:53.947Z,4.77
2017-10-03T19:37:22.249Z,5.00
2017-10-03T19:39:49.756Z,4.97
2017-10-03T19:42:17.284Z,5.37
2017-10-03T19:44:44.811Z,5.00
2017-10-03T19:47:12.352Z,6.00
2017-10-03T19:49:39.855Z,5.47
2017-10-03T19:52:07.355Z,6.17
2017-10-03T19:54:34.882Z,5.47
2017-10-03T19:57:02.379Z,7.50
2017-10-03T19:59:29.910Z,5.83
2017-10-03T20:01:57.415Z,6.20
2017-10-03T20:04:24.917Z,5.60
2017-10-03T20:06:52.458Z,6.33
2017-10-03T20:09:20.741Z,6.50
2017-10-03T20:11:48.283Z,6.00
2017-10-03T20:14:16.561Z,6.10
2017-10-03T20:16:44.876Z,6.40
2017-10-03T20:19:12.398Z,6.80
2017-10-03T20:21:40.658Z,6.17
2017-10-03T20:24:08.183Z,6.57
2017-10-03T20:26:35.718Z,7.00
2017-10-03T20:29:03.219Z,7.00
2017-10-03T20:31:30.740Z,6.80
2017-10-03T20:33:59.022Z,6.90
2017-10-03T20:36:26.518Z,6.60
2017-10-03T20:38:54.038Z,7.40
2017-10-03T20:41:21.586Z,6.70
2017-10-03T20:43:49.102Z,6.40
2017-10-03T20:46:16.669Z,6.70
2017-10-03T20:48:44.199Z,7.57
2017-10-03T20:51:12.477Z,7.80
2017-10-03T20:53:40.061Z,6.10
2017-10-03T20:56:07.575Z,7.53
2017-10-03T20:58:35.839Z,7.40
2017-10-03T21:01:03.378Z,6.97
2017-10-03T21:03:30.926Z,6.43
2017-10-03T21:05:59.204Z,5.87
2017-10-03T21:08:27.486Z,6.73
2017-10-03T21:10:55.003Z,6.93
2017-10-03T21:13:22.544Z,6.47
2017-10-03T21:15:50.070Z,6.70
2017-10-03T21:18:17.637Z,7.70
2017-10-03T21:20:45.140Z,6.10
2017-10-03T21:23:12.651Z,6.30
2017-10-03T21:25:40.180Z,7.20
2017-10-03T21:28:07.701Z,6.13
2017-10-03T21:30:35.215Z,5.53
2017-10-03T21:33:02.729Z,5.70
2017-10-03T21:35:30.276Z,6.90
2017-10-03T21:37:59.338Z,5.50
2017-10-03T21:40:26.834Z,5.47
2017-10-03T21:43:06.211Z,6.00
2017-10-03T21:45:33.715Z,6.60
2017-10-03T21:48:01.261Z,5.83
2017-10-03T21:50:28.773Z,5.67
2017-10-03T21:52:57.066Z,5.97
2017-10-03T21:55:24.577Z,5.80
2017-10-03T21:57:52.070Z,7.23
2017-10-03T22:00:20.374Z,6.63
2017-10-03T22:02:47.888Z,5.90
2017-10-03T22:05:16.214Z,6.37
2017-10-03T22:07:43.717Z,6.57
2017-10-03T22:10:11.219Z,5.77
2017-10-03T22:12:38.768Z,5.17
2017-10-03T22:15:06.285Z,6.20
2017-10-03T22:17:35.322Z,5.37
2017-10-03T22:20:02.814Z,7.10
2017-10-03T22:22:30.326Z,4.70
2017-10-03T22:24:58.623Z,5.13
2017-10-03T22:27:26.138Z,5.33
2017-10-03T22:29:53.747Z,4.50
2017-10-03T22:32:21.285Z,6.27
2017-10-03T22:34:48.804Z,5.33
2017-10-03T22:37:16.329Z,5.20
2017-10-03T22:39:43.841Z,5.67
2017-10-03T22:42:12.120Z,5.97
2017-10-03T22:44:40.398Z,4.30
2017-10-03T22:47:08.659Z,5.33
2017-10-03T22:49:36.210Z,4.50
2017-10-03T22:52:09.413Z,4.97
2017-10-03T22:54:37.839Z,4.00
2017-10-03T22:57:05.466Z,4.03
2017-10-03T22:59:33.726Z,4.00
2017-10-03T23:02:01.269Z,4.00
2017-10-03T23:04:28.786Z,4.07
2017-10-03T23:06:56.353Z,5.57
2017-10-03T23:09:23.910Z,4.17
2017-10-03T23:11:51.406Z,4.73
2017-10-03T23:14:19.679Z,5.43
2017-10-03T23:16:47.211Z,4.70
2017-10-03T23:19:14.715Z,6.10
2017-10-03T23:21:42.994Z,4.27
2017-10-03T23:24:10.538Z,5.03
2017-10-03T23:26:38.048Z,4.87
2017-10-03T23:29:05.559Z,4.03
2017-10-03T23:31:33.082Z,4.00
2017-10-03T23:34:00.579Z,3.73
2017-10-03T23:36:29.192Z,3.97
2017-10-03T23:38:56.735Z,4.20
2017-10-03T23:41:25.003Z,4.00
2017-10-03T23:43:53.572Z,3.70
2017-10-03T23:46:21.121Z,4.60
2017-10-03T23:48:48.613Z,4.10
2017-10-03T23:51:16.918Z,3.90
2017-10-03T23:53:44.451Z,4.77
2017-10-03T23:56:12.730Z,4.73
2017-10-03T23:58:41.004Z,4.80
